createdAt,value
2023-05-16T00:00:27.028Z,12.35
2023-05-16T00:05:34.710Z,12.32
2023-05-16T00:10:41.855Z,12.32
2023-05-16T00:15:48.922Z,12.35
2023-05-16T00:20:56.302Z,12.32
2023-05-16T00:26:03.821Z,12.28
2023-05-16T00:31:11.025Z,12.26
2023-05-16T00:36:18.035Z,12.21
2023-05-16T00:41:27.485Z,12.17
2023-05-16T00:46:34.514Z,12.15
2023-05-16T00:51:41.792Z,12.14
2023-05-16T00:56:48.991Z,12.12
2023-05-16T01:01:56.950Z,12.05
2023-05-16T01:07:04.283Z,12.00
2023-05-16T01:12:22.844Z,11.96
2023-05-16T01:17:38.137Z,11.94
2023-05-16T01:23:15.344Z,11.91
2023-05-16T01:28:24.260Z,11.84
2023-05-16T01:33:31.401Z,11.78
2023-05-16T01:38:45.840Z,11.73
2023-05-16T01:43:58.116Z,11.68
2023-05-16T01:49:17.375Z,11.64
2023-05-16T01:54:28.068Z,11.63
2023-05-16T01:59:35.790Z,11.63
2023-05-16T02:04:42.959Z,11.64
2023-05-16T02:09:50.077Z,11.65
2023-05-16T02:14:57.138Z,11.64
2023-05-16T02:20:07.250Z,11.61
2023-05-16T02:25:15.600Z,11.59
2023-05-16T02:30:22.691Z,11.55
2023-05-16T02:35:29.898Z,11.55
2023-05-16T02:40:36.999Z,11.57
2023-05-16T02:45:44.032Z,11.57
2023-05-16T02:50:52.268Z,11.53
2023-05-16T02:55:59.472Z,11.48
2023-05-16T03:01:06.846Z,11.46
2023-05-16T03:06:13.977Z,11.45
2023-05-16T03:11:21.933Z,11.46
2023-05-16T03:16:29.395Z,11.44
2023-05-16T03:21:36.470Z,11.41
2023-05-16T03:26:43.444Z,11.38
2023-05-16T03:31:51.430Z,11.35
2023-05-16T03:36:58.962Z,11.34
2023-05-16T03:42:07.686Z,11.33
2023-05-16T03:47:15.098Z,11.34
2023-05-16T03:52:22.383Z,11.37
2023-05-16T03:57:29.632Z,11.38
2023-05-16T04:02:36.898Z,11.40
2023-05-16T04:07:45.038Z,11.45
2023-05-16T04:12:52.858Z,11.51
2023-05-16T04:17:58.356Z,11.60
2023-05-16T04:23:05.825Z,11.80
2023-05-16T04:28:12.901Z,12.05
2023-05-16T04:33:20.298Z,12.13
2023-05-16T04:38:27.457Z,12.19
2023-05-16T04:43:34.622Z,12.23
2023-05-16T04:48:41.719Z,12.20
2023-05-16T04:53:48.998Z,12.14
2023-05-16T04:58:56.583Z,12.09
2023-05-16T05:04:03.883Z,12.09
2023-05-16T05:09:11.220Z,12.15
2023-05-16T05:14:18.269Z,12.25
2023-05-16T05:19:25.535Z,12.40
2023-05-16T05:24:32.815Z,12.53
2023-05-16T05:29:40.426Z,12.62
2023-05-16T05:34:47.902Z,12.69
2023-05-16T05:39:55.301Z,12.92
2023-05-16T05:45:02.495Z,13.32
2023-05-16T05:50:13.025Z,13.57
2023-05-16T05:55:20.125Z,13.65
2023-05-16T06:00:29.447Z,13.63
2023-05-16T06:05:36.739Z,13.63
2023-05-16T06:10:43.878Z,13.79
2023-05-16T06:15:54.420Z,14.11
2023-05-16T06:21:01.469Z,14.33
2023-05-16T06:26:09.183Z,14.38
2023-05-16T06:31:16.360Z,14.33
2023-05-16T06:36:23.451Z,14.19
2023-05-16T06:41:30.624Z,14.03
2023-05-16T06:46:38.487Z,13.89
2023-05-16T06:51:45.912Z,13.74
2023-05-16T06:56:55.873Z,13.61
2023-05-16T07:02:03.128Z,13.47
2023-05-16T07:07:11.562Z,13.38
2023-05-16T07:12:24.742Z,13.37
2023-05-16T07:17:33.616Z,13.43
2023-05-16T07:22:40.876Z,13.47
2023-05-16T07:27:48.148Z,13.54
2023-05-16T07:32:55.518Z,13.60
2023-05-16T07:38:03.302Z,13.65
2023-05-16T07:43:13.085Z,13.71
2023-05-16T07:48:20.290Z,13.90
2023-05-16T07:53:27.725Z,14.18
2023-05-16T07:58:35.212Z,14.27
2023-05-16T08:03:42.436Z,14.25
2023-05-16T08:08:49.598Z,14.25
2023-05-16T08:13:58.476Z,14.27
2023-05-16T08:19:06.037Z,14.26
2023-05-16T08:24:13.397Z,14.28
2023-05-16T08:29:20.702Z,14.50
2023-05-16T08:34:27.874Z,15.35
2023-05-16T08:39:35.184Z,16.22
2023-05-16T08:44:42.402Z,16.70
2023-05-16T08:49:52.687Z,16.76
2023-05-16T08:55:10.929Z,16.68
2023-05-16T09:00:20.814Z,16.81
2023-05-16T09:05:29.089Z,17.03
2023-05-16T09:10:36.471Z,17.25
2023-05-16T09:15:43.708Z,17.46
2023-05-16T09:20:53.644Z,17.67
2023-05-16T09:26:02.032Z,17.80
2023-05-16T09:31:23.224Z,17.82
2023-05-16T09:36:30.697Z,17.85
2023-05-16T09:41:40.485Z,18.08
2023-05-16T09:46:47.868Z,18.43
2023-05-16T09:51:53.662Z,18.63
2023-05-16T09:57:02.960Z,18.85
2023-05-16T10:02:12.424Z,19.05
2023-05-16T10:07:20.846Z,19.16
2023-05-16T10:12:31.930Z,19.16
2023-05-16T10:17:43.507Z,19.29
2023-05-16T10:22:54.171Z,19.47
2023-05-16T10:28:02.667Z,19.56
2023-05-16T10:33:10.354Z,19.48
2023-05-16T10:38:19.439Z,19.52
2023-05-16T10:43:31.246Z,19.72
2023-05-16T10:48:40.081Z,19.80
2023-05-16T10:53:48.259Z,19.79
2023-05-16T10:58:57.065Z,19.82
2023-05-16T11:04:08.706Z,19.90
2023-05-16T11:09:29.419Z,20.00
2023-05-16T11:14:43.751Z,20.00
2023-05-16T11:19:52.384Z,20.02
2023-05-16T11:25:01.593Z,19.98
2023-05-16T11:30:17.795Z,19.87
2023-05-16T11:35:26.388Z,19.76
2023-05-16T11:40:35.181Z,19.70
2023-05-16T11:45:42.926Z,19.70
2023-05-16T11:50:50.698Z,19.68
2023-05-16T11:56:00.465Z,19.69
2023-05-16T12:01:08.648Z,19.64
2023-05-16T12:06:16.737Z,19.54
2023-05-16T12:11:26.069Z,19.49
2023-05-16T12:16:33.957Z,19.40
2023-05-16T12:21:41.576Z,19.28
2023-05-16T12:26:47.621Z,19.14
2023-05-16T12:31:56.161Z,18.99
2023-05-16T12:37:03.276Z,18.89
2023-05-16T12:42:13.711Z,18.77
2023-05-16T12:47:21.629Z,18.71
2023-05-16T12:52:32.046Z,18.75
2023-05-16T12:57:39.388Z,18.86
2023-05-16T13:02:45.092Z,19.02
2023-05-16T13:07:52.881Z,19.13
2023-05-16T13:13:00.511Z,19.13
2023-05-16T13:18:08.071Z,19.04
2023-05-16T13:23:13.942Z,18.90
2023-05-16T13:28:21.398Z,18.79
2023-05-16T13:33:28.659Z,18.65
2023-05-16T13:38:36.390Z,18.52
2023-05-16T13:43:44.533Z,18.42
2023-05-16T13:48:51.903Z,18.31
2023-05-16T13:54:01.422Z,18.24
2023-05-16T13:59:09.717Z,18.21
2023-05-16T14:04:18.814Z,18.19
2023-05-16T14:09:25.948Z,18.19
2023-05-16T14:14:33.283Z,18.23
2023-05-16T14:19:40.471Z,18.29
2023-05-16T14:24:47.684Z,18.37
2023-05-16T14:29:54.823Z,18.45
2023-05-16T14:35:01.991Z,18.53
2023-05-16T14:40:10.978Z,18.52
2023-05-16T14:45:18.206Z,18.49
2023-05-16T14:50:25.305Z,18.45
2023-05-16T14:55:32.490Z,18.41
2023-05-16T15:00:39.704Z,18.37
2023-05-16T15:05:47.135Z,18.34
2023-05-16T15:10:54.340Z,18.26
2023-05-16T15:16:01.867Z,18.20
2023-05-16T15:21:09.399Z,18.11
2023-05-16T15:26:16.550Z,18.05
2023-05-16T15:31:23.840Z,18.01
2023-05-16T15:36:31.236Z,17.97
2023-05-16T15:42:05.330Z,17.90
2023-05-16T15:47:09.538Z,17.78
2023-05-16T15:52:16.765Z,17.67
2023-05-16T15:57:24.601Z,17.52
2023-05-16T16:02:32.361Z,17.36
2023-05-16T16:07:39.564Z,17.21
2023-05-16T16:12:59.163Z,17.07
2023-05-16T16:18:07.073Z,16.95
2023-05-16T16:23:14.181Z,16.82
2023-05-16T16:28:22.557Z,16.69
2023-05-16T16:33:31.005Z,16.55
2023-05-16T16:38:38.093Z,16.41
2023-05-16T16:43:45.425Z,16.32
2023-05-16T16:48:53.257Z,16.22
2023-05-16T16:54:00.341Z,16.14
2023-05-16T16:59:07.881Z,16.07
2023-05-16T17:04:15.089Z,15.99
2023-05-16T17:09:25.448Z,15.93
2023-05-16T17:14:35.243Z,15.85
2023-05-16T17:19:42.404Z,15.74
2023-05-16T17:24:49.661Z,15.62
2023-05-16T17:29:57.415Z,15.50
2023-05-16T17:35:04.256Z,15.39
2023-05-16T17:40:17.254Z,15.27
2023-05-16T17:45:24.666Z,15.16
2023-05-16T17:50:32.805Z,15.10
2023-05-16T17:55:39.992Z,15.06
2023-05-16T18:00:48.714Z,14.97
2023-05-16T18:05:56.162Z,14.77
2023-05-16T18:11:03.314Z,14.54
2023-05-16T18:16:12.478Z,14.36
2023-05-16T18:21:20.100Z,14.14
2023-05-16T18:26:27.438Z,13.93
2023-05-16T18:31:36.965Z,13.76
2023-05-16T18:36:44.197Z,13.67
2023-05-16T18:41:51.333Z,13.63
2023-05-16T18:46:58.982Z,13.54
2023-05-16T18:52:07.462Z,13.44
2023-05-16T18:57:14.669Z,13.38
2023-05-16T19:02:30.197Z,13.33
2023-05-16T19:07:41.490Z,13.31
2023-05-16T19:12:49.329Z,13.33
2023-05-16T19:17:56.666Z,13.34
2023-05-16T19:23:04.522Z,13.34
2023-05-16T19:28:10.316Z,13.33
2023-05-16T19:33:20.780Z,13.30
2023-05-16T19:38:28.267Z,13.27
2023-05-16T19:43:35.767Z,13.25
2023-05-16T19:48:49.242Z,13.26
2023-05-16T19:53:57.874Z,13.26
2023-05-16T19:59:10.258Z,13.24
2023-05-16T20:04:18.123Z,13.21
2023-05-16T20:09:28.867Z,13.17
2023-05-16T20:14:37.752Z,13.14
2023-05-16T20:19:45.730Z,13.12
2023-05-16T20:24:54.513Z,13.13
2023-05-16T20:30:07.676Z,13.14
2023-05-16T20:35:18.297Z,13.18
2023-05-16T20:40:25.611Z,13.18
2023-05-16T20:45:33.353Z,13.16
2023-05-16T20:50:41.040Z,13.11
2023-05-16T20:55:48.108Z,13.09
2023-05-16T21:00:58.335Z,13.08
2023-05-16T21:06:05.756Z,13.10
2023-05-16T21:11:13.055Z,13.12
2023-05-16T21:16:20.150Z,13.12
2023-05-16T21:21:27.249Z,13.08
2023-05-16T21:26:35.802Z,13.06
2023-05-16T21:31:42.985Z,13.02
2023-05-16T21:36:50.302Z,13.01
2023-05-16T21:41:57.353Z,13.01
2023-05-16T21:47:04.425Z,12.95
2023-05-16T21:52:11.676Z,12.87
2023-05-16T21:57:18.939Z,12.80
2023-05-16T22:02:26.126Z,12.77
2023-05-16T22:07:33.366Z,12.73
2023-05-16T22:12:40.941Z,12.69
2023-05-16T22:17:48.314Z,12.63
2023-05-16T22:22:55.619Z,12.56
2023-05-16T22:28:02.669Z,12.49
2023-05-16T22:33:10.009Z,12.43
2023-05-16T22:38:17.336Z,12.42
2023-05-16T22:43:24.504Z,12.39
2023-05-16T22:48:31.828Z,12.37
2023-05-16T22:53:39.061Z,12.33
2023-05-16T22:58:46.206Z,12.28
2023-05-16T23:03:53.283Z,12.25
2023-05-16T23:09:02.452Z,12.22
2023-05-16T23:14:09.688Z,12.14
2023-05-16T23:19:17.204Z,12.05
2023-05-16T23:24:25.353Z,12.00
2023-05-16T23:29:32.445Z,11.98
2023-05-16T23:34:39.634Z,11.96
2023-05-16T23:39:46.711Z,11.92
2023-05-16T23:44:53.838Z,11.89
2023-05-16T23:50:00.890Z,11.85
2023-05-16T23:55:09.234Z,11.83
